Time;durP1;ratioP1;P1;durP2;ratioP2;P2;SDS_P1;SDS_P2;PMS_P1;PMS_P2;Temp;Humidity;BMP_temperature;BMP_pressure;BME280_temperature;BME280_humidity;BME280_pressure;Samples;Min_cycle;Max_cycle;Signal;HPM_P1;HPM_P2
2022/09/23 04:01:19;;;;;;;1.88;1.63;;;9.60;99.90;;;;;;5536534;23;20335;-70
2022/09/23 04:03:47;;;;;;;0.90;0.90;;;9.60;99.90;;;;;;4947725;28;20211;-71
2022/09/23 04:06:14;;;;;;;1.65;1.55;;;9.60;99.90;;;;;;4952522;28;20270;-71
2022/09/23 04:08:41;;;;;;;10.13;2.00;;;9.60;99.90;;;;;;4947109;29;20219;-71
2022/09/23 04:11:08;;;;;;;2.08;1.98;;;9.60;99.90;;;;;;4951096;28;20661;-70
2022/09/23 04:13:35;;;;;;;1.08;1.08;;;9.70;99.90;;;;;;4952938;28;20216;-71
2022/09/23 04:16:02;;;;;;;1.05;1.05;;;9.70;99.90;;;;;;4952774;28;20215;-70
2022/09/23 04:18:30;;;;;;;1.48;1.48;;;9.70;99.90;;;;;;4952096;28;20231;-70
2022/09/23 04:20:58;;;;;;;1.52;1.42;;;9.70;99.90;;;;;;4954253;28;20276;-70
2022/09/23 04:23:25;;;;;;;2.13;2.05;;;9.70;99.90;;;;;;4951464;28;20262;-71
2022/09/23 04:25:52;;;;;;;1.42;1.33;;;9.70;99.90;;;;;;4953262;28;20208;-71
2022/09/23 04:28:19;;;;;;;1.50;1.40;;;9.70;99.90;;;;;;4944711;28;20225;-70
2022/09/23 04:30:47;;;;;;;0.80;0.80;;;9.70;99.90;;;;;;4951370;28;20235;-70
2022/09/23 04:33:15;;;;;;;1.60;1.55;;;9.60;99.90;;;;;;4950563;28;20603;-70
2022/09/23 04:35:43;;;;;;;1.25;1.25;;;9.60;99.90;;;;;;4954884;28;20311;-71
2022/09/23 04:38:10;;;;;;;1.10;1.10;;;9.60;99.90;;;;;;4954960;28;20208;-71
2022/09/23 04:40:37;;;;;;;1.50;1.50;;;9.50;99.90;;;;;;4954220;28;20274;-71
2022/09/23 04:43:04;;;;;;;6.82;1.70;;;9.50;99.90;;;;;;4954259;28;20209;-71
2022/09/23 04:45:30;;;;;;;1.52;1.42;;;9.50;99.90;;;;;;4947749;28;20227;-71
2022/09/23 04:47:58;;;;;;;1.33;1.30;;;9.50;99.90;;;;;;4953014;28;20211;-70
2022/09/23 04:50:25;;;;;;;1.40;1.40;;;9.40;99.90;;;;;;4956260;28;20210;-71
2022/09/23 04:52:54;;;;;;;3.72;1.95;;;9.40;99.90;;;;;;4953436;28;20216;-70
2022/09/23 04:55:20;;;;;;;1.63;1.55;;;9.30;99.90;;;;;;4955622;28;20215;-70
2022/09/23 04:57:48;;;;;;;1.23;1.13;;;9.30;99.90;;;;;;4955362;28;20229;-70
2022/09/23 05:00:15;;;;;;;2.17;2.08;;;9.30;99.90;;;;;;4956313;28;20254;-70
2022/09/23 05:02:43;;;;;;;1.52;1.52;;;9.30;99.90;;;;;;4954820;28;20328;-70
2022/09/23 05:05:10;;;;;;;1.55;1.55;;;9.30;99.90;;;;;;4951850;29;20609;-70
2022/09/23 05:07:37;;;;;;;1.17;1.15;;;9.30;99.90;;;;;;4955435;28;20208;-70
2022/09/23 05:10:06;;;;;;;1.05;1.05;;;9.30;99.90;;;;;;4958137;29;20841;-71
2022/09/23 05:12:33;;;;;;;1.20;1.10;;;9.30;99.90;;;;;;4958325;28;20232;-71
2022/09/23 05:15:00;;;;;;;2.05;1.50;;;9.30;99.90;;;;;;4958246;28;20250;-71
2022/09/23 05:17:30;;;;;;;7.32;1.90;;;9.30;99.90;;;;;;4962618;29;20212;-71
2022/09/23 05:19:57;;;;;;;1.00;1.00;;;9.30;99.90;;;;;;4965494;28;20230;-70
2022/09/23 05:22:25;;;;;;;1.60;1.60;;;9.40;99.90;;;;;;4961190;28;20236;-70
2022/09/23 05:24:51;;;;;;;1.55;1.55;;;9.40;99.90;;;;;;4958743;28;20221;-71
2022/09/23 05:27:20;;;;;;;1.58;1.50;;;9.50;99.90;;;;;;4963468;28;20216;-71
2022/09/23 05:29:47;;;;;;;1.25;1.25;;;9.50;99.90;;;;;;4963941;29;20219;-71
2022/09/23 05:32:14;;;;;;;1.10;1.10;;;9.50;99.90;;;;;;4965624;28;20243;-70
2022/09/23 05:34:41;;;;;;;1.35;1.35;;;9.50;99.90;;;;;;4963777;29;20215;-71
2022/09/23 05:37:08;;;;;;;1.60;1.20;;;9.60;99.90;;;;;;4963043;28;20213;-71
2022/09/23 05:39:35;;;;;;;1.40;1.40;;;9.60;99.90;;;;;;4953602;28;20227;-70
2022/09/23 05:42:02;;;;;;;1.15;1.15;;;9.60;99.90;;;;;;4954969;28;20323;-71
2022/09/23 05:44:30;;;;;;;1.10;1.10;;;9.70;99.90;;;;;;4951546;28;20215;-71
2022/09/23 05:46:57;;;;;;;5.03;1.67;;;9.70;99.90;;;;;;4954382;28;20541;-69
2022/09/23 05:49:24;;;;;;;1.73;1.65;;;9.70;99.90;;;;;;4952204;28;20214;-69
2022/09/23 05:51:50;;;;;;;1.50;1.50;;;9.80;99.90;;;;;;4954140;28;22139;-70
2022/09/23 05:54:18;;;;;;;3.25;1.90;;;9.80;99.90;;;;;;4957773;28;20219;-70
2022/09/23 05:56:44;;;;;;;1.20;1.20;;;9.80;99.90;;;;;;4957115;28;20309;-70
2022/09/23 05:59:11;;;;;;;2.00;1.90;;;9.80;99.90;;;;;;4957982;28;20226;-70
2022/09/23 06:01:39;;;;;;;3.10;1.52;;;9.80;99.90;;;;;;4958121;28;20246;-71
2022/09/23 06:04:07;;;;;;;1.27;1.27;;;9.90;99.90;;;;;;4956927;28;20330;-70
2022/09/23 06:06:36;;;;;;;1.30;1.30;;;9.90;99.90;;;;;;4961533;28;20885;-70
2022/09/23 06:09:04;;;;;;;2.20;2.10;;;10.00;99.90;;;;;;4959375;28;20787;-70
2022/09/23 06:11:32;;;;;;;1.60;1.52;;;10.00;99.90;;;;;;4957361;28;20649;-70
2022/09/23 06:14:00;;;;;;;1.52;1.52;;;10.00;99.90;;;;;;4964011;28;20208;-70
2022/09/23 06:16:29;;;;;;;2.35;2.25;;;10.10;99.90;;;;;;4958553;28;20299;-71
2022/09/23 06:18:59;;;;;;;2.65;2.55;;;10.20;99.90;;;;;;4953133;28;20313;-71
2022/09/23 06:21:26;;;;;;;1.40;1.30;;;10.30;99.90;;;;;;4953075;28;20231;-70
2022/09/23 06:23:52;;;;;;;1.65;1.42;;;10.30;99.90;;;;;;4952822;28;20308;-71
2022/09/23 06:26:19;;;;;;;1.88;1.80;;;10.40;99.90;;;;;;4948963;28;20576;-70
2022/09/23 06:28:46;;;;;;;1.70;1.70;;;10.50;99.90;;;;;;4951489;28;20211;-69
2022/09/23 06:31:15;;;;;;;2.42;2.33;;;10.60;99.90;;;;;;4952292;28;20278;-70
2022/09/23 06:33:43;;;;;;;1.23;1.23;;;10.60;99.90;;;;;;4950027;28;20204;-70
2022/09/23 06:36:13;;;;;;;1.77;1.77;;;10.70;99.90;;;;;;4955622;28;20207;-69
2022/09/23 06:38:42;;;;;;;1.73;1.73;;;10.70;99.90;;;;;;4949058;29;20287;-70
2022/09/23 06:41:09;;;;;;;2.38;2.28;;;10.80;99.90;;;;;;4952767;28;20235;-70
2022/09/23 06:43:36;;;;;;;1.73;1.63;;;10.80;99.90;;;;;;4951304;28;20311;-72
2022/09/23 06:46:06;;;;;;;3.05;1.13;;;10.80;99.90;;;;;;4949834;28;20693;-71
2022/09/23 06:48:34;;;;;;;2.17;1.98;;;11.00;99.90;;;;;;4949460;29;20749;-69
2022/09/23 06:51:02;;;;;;;1.77;1.67;;;10.90;99.90;;;;;;4948290;28;20621;-70
2022/09/23 06:53:31;;;;;;;1.98;1.50;;;11.00;99.90;;;;;;4949672;28;20255;-70
2022/09/23 06:56:00;;;;;;;2.13;1.90;;;11.00;99.90;;;;;;4948923;28;20214;-70
2022/09/23 06:58:26;;;;;;;2.15;1.95;;;11.10;99.90;;;;;;4951975;28;20315;-69
2022/09/23 07:00:53;;;;;;;1.63;1.63;;;11.00;99.90;;;;;;4954106;28;20226;-70
2022/09/23 07:03:21;;;;;;;6.85;2.08;;;11.00;99.90;;;;;;4957038;28;20246;-70
2022/09/23 07:05:47;;;;;;;4.13;1.92;;;11.10;99.90;;;;;;4952714;28;20682;-70
2022/09/23 07:08:15;;;;;;;2.83;1.75;;;11.10;99.90;;;;;;4956529;28;20213;-71
2022/09/23 07:10:43;;;;;;;1.63;1.50;;;11.20;99.90;;;;;;4954042;28;20226;-71
2022/09/23 07:13:10;;;;;;;1.92;1.40;;;11.20;99.90;;;;;;4949541;28;20207;-70
2022/09/23 07:15:37;;;;;;;1.50;1.50;;;11.20;99.90;;;;;;4951064;29;20213;-69
2022/09/23 07:18:03;;;;;;;1.30;1.20;;;11.20;99.90;;;;;;4954483;28;20282;-70
2022/09/23 07:20:30;;;;;;;2.00;1.52;;;11.20;99.90;;;;;;4953420;28;20231;-69
2022/09/23 07:22:57;;;;;;;3.40;2.03;;;11.20;99.90;;;;;;4950343;28;20588;-69
2022/09/23 07:25:24;;;;;;;5.00;1.60;;;11.20;99.90;;;;;;4945887;29;20219;-70
2022/09/23 07:27:52;;;;;;;2.10;2.05;;;11.20;99.90;;;;;;4950322;28;20212;-69
2022/09/23 07:30:19;;;;;;;1.50;1.42;;;11.20;99.90;;;;;;4953333;28;20210;-69
2022/09/23 07:32:46;;;;;;;1.08;1.08;;;11.20;99.90;;;;;;4953127;28;20227;-70
2022/09/23 07:35:12;;;;;;;1.77;1.17;;;11.20;99.90;;;;;;4948261;28;20568;-70
2022/09/23 07:37:39;;;;;;;2.53;1.42;;;11.30;99.90;;;;;;4955762;28;20211;-71
2022/09/23 07:40:06;;;;;;;1.20;1.20;;;11.20;99.90;;;;;;4955623;28;20232;-69
2022/09/23 07:42:33;;;;;;;1.65;1.55;;;11.30;99.90;;;;;;4952794;28;20239;-69
2022/09/23 07:45:01;;;;;;;1.42;1.33;;;11.40;99.90;;;;;;4944823;28;20207;-70
2022/09/23 07:47:28;;;;;;;1.60;1.48;;;11.40;99.90;;;;;;4952888;28;20210;-70
2022/09/23 07:49:55;;;;;;;1.70;1.60;;;11.50;99.90;;;;;;4953687;28;20221;-70
2022/09/23 07:52:22;;;;;;;1.83;1.55;;;11.50;99.90;;;;;;4944690;28;20227;-69
2022/09/23 07:54:48;;;;;;;1.50;1.40;;;11.50;99.90;;;;;;4954453;28;20644;-70
2022/09/23 07:57:15;;;;;;;0.85;0.85;;;11.60;99.90;;;;;;4953184;28;20223;-70
2022/09/23 07:59:42;;;;;;;1.00;1.00;;;11.70;99.90;;;;;;4954299;29;20224;-70
2022/09/23 08:02:15;;;;;;;2.03;1.50;;;11.80;99.90;;;;;;4952527;28;20304;-71
2022/09/23 08:04:41;;;;;;;2.70;1.70;;;11.90;99.90;;;;;;4948940;29;20213;-70
2022/09/23 08:07:08;;;;;;;1.67;1.67;;;12.00;99.90;;;;;;4944027;29;20222;-70
2022/09/23 08:09:40;;;;;;;1.55;1.55;;;12.10;99.90;;;;;;4953747;28;20281;-70
2022/09/23 08:12:07;;;;;;;3.88;1.63;;;12.20;99.90;;;;;;4949957;29;20590;-70
2022/09/23 08:14:34;;;;;;;0.90;0.90;;;12.40;99.90;;;;;;4953814;28;20214;-70
2022/09/23 08:17:00;;;;;;;1.63;1.63;;;12.50;99.90;;;;;;4953598;28;20311;-69
2022/09/23 08:19:28;;;;;;;4.97;1.30;;;12.60;99.90;;;;;;4945007;29;20645;-70
2022/09/23 08:21:56;;;;;;;1.20;1.20;;;12.80;99.90;;;;;;4950526;28;20239;-71
2022/09/23 08:24:25;;;;;;;0.60;0.60;;;12.90;99.90;;;;;;4953069;28;20538;-70
2022/09/23 08:26:53;;;;;;;1.07;1.07;;;12.90;99.90;;;;;;4945320;29;20468;-70
2022/09/23 08:29:21;;;;;;;0.77;0.77;;;13.00;99.90;;;;;;4952471;29;20463;-70
2022/09/23 08:31:49;;;;;;;1.40;1.40;;;13.10;99.90;;;;;;4949756;28;20502;-71
2022/09/23 08:34:17;;;;;;;1.10;0.97;;;13.20;99.90;;;;;;4952909;28;20463;-70
2022/09/23 08:36:45;;;;;;;2.87;1.23;;;13.40;99.90;;;;;;4953189;28;20955;-70
2022/09/23 08:39:14;;;;;;;0.73;0.73;;;13.40;99.90;;;;;;4952562;28;20490;-71
2022/09/23 08:41:47;;;;;;;1.07;1.07;;;13.60;99.90;;;;;;4949419;29;20547;-71
2022/09/23 08:44:18;;;;;;;1.33;1.03;;;13.60;99.90;;;;;;4953496;28;20514;-71
2022/09/23 08:46:51;;;;;;;1.00;1.00;;;13.70;99.90;;;;;;4950441;28;20586;-71
2022/09/23 08:49:25;;;;;;;0.73;0.73;;;13.70;99.90;;;;;;4953033;28;20476;-71
2022/09/23 08:51:55;;;;;;;0.77;0.53;;;13.80;99.90;;;;;;4950813;28;20484;-71
2022/09/23 08:54:23;;;;;;;0.67;0.67;;;13.90;99.90;;;;;;4952489;28;20468;-70
2022/09/23 08:56:52;;;;;;;1.13;1.13;;;14.10;99.90;;;;;;4952276;28;20463;-70
2022/09/23 08:59:25;;;;;;;0.63;0.63;;;14.20;99.90;;;;;;4951262;28;20476;-70
2022/09/23 09:01:54;;;;;;;0.87;0.87;;;14.20;99.90;;;;;;4951306;28;20531;-70
2022/09/23 09:04:26;;;;;;;1.37;1.30;;;14.20;99.90;;;;;;4951381;28;20900;-71
2022/09/23 09:06:58;;;;;;;0.90;0.90;;;14.20;99.90;;;;;;4953169;28;20467;-71
2022/09/23 09:09:29;;;;;;;1.10;1.10;;;14.20;99.90;;;;;;4939968;29;20976;-70
2022/09/23 09:12:02;;;;;;;1.00;1.00;;;14.30;99.90;;;;;;4951104;29;20514;-72
2022/09/23 09:14:36;;;;;;;0.63;0.63;;;14.40;99.90;;;;;;4951515;28;20579;-75
2022/09/23 09:17:06;;;;;;;1.13;0.83;;;14.50;99.90;;;;;;4953112;28;20470;-70
2022/09/23 09:20:02;;;;;;;1.27;0.90;;;14.60;99.90;;;;;;4949634;28;20524;-70
2022/09/23 09:22:43;;;;;;;0.50;0.50;;;14.60;99.90;;;;;;4941203;29;20491;-70
2022/09/23 09:25:23;;;;;;;1.50;1.00;;;14.70;99.90;;;;;;4949367;29;20502;-71
2022/09/23 09:27:51;;;;;;;0.50;0.50;;;14.70;99.90;;;;;;4953115;28;20468;-71
2022/09/23 09:30:18;;;;;;;0.50;0.50;;;14.80;99.90;;;;;;4949816;28;20472;-72
2022/09/23 09:32:48;;;;;;;0.57;0.57;;;14.90;99.90;;;;;;4949719;28;20476;-71
2022/09/23 09:35:32;;;;;;;0.60;0.60;;;14.90;99.90;;;;;;4947033;28;20485;-70
2022/09/23 09:38:00;;;;;;;0.90;0.90;;;15.10;99.90;;;;;;4950233;28;20477;-71
2022/09/23 09:40:27;;;;;;;0.60;0.60;;;15.20;99.90;;;;;;4952198;28;20519;-70
2022/09/23 09:42:54;;;;;;;0.50;0.50;;;15.30;99.90;;;;;;4951062;29;20487;-71
2022/09/23 09:45:29;;;;;;;0.50;0.50;;;15.50;99.90;;;;;;4952416;28;20537;-70
2022/09/23 09:48:04;;;;;;;0.57;0.57;;;15.70;99.90;;;;;;4951288;28;20487;-71
2022/09/23 09:50:43;;;;;;;1.00;1.00;;;15.70;99.90;;;;;;4952932;28;20461;-70
2022/09/23 09:53:22;;;;;;;0.70;0.70;;;15.80;99.90;;;;;;4951215;28;20473;-70
2022/09/23 09:55:59;;;;;;;3.73;0.80;;;15.90;99.90;;;;;;4933910;29;20946;-70
2022/09/23 09:58:29;;;;;;;0.60;0.60;;;15.90;99.90;;;;;;4942782;29;20470;-69
2022/09/23 10:00:57;;;;;;;0.40;0.40;;;16.10;99.90;;;;;;4952383;28;20991;-70
2022/09/23 10:03:31;;;;;;;0.50;0.50;;;16.20;99.90;;;;;;4950991;28;20472;-69
2022/09/23 10:05:58;;;;;;;0.80;0.80;;;16.30;99.90;;;;;;4952987;28;20475;-69
2022/09/23 10:08:30;;;;;;;0.70;0.70;;;16.50;99.90;;;;;;4952138;28;20469;-70
2022/09/23 10:11:02;;;;;;;1.23;1.23;;;16.40;99.90;;;;;;4952887;28;20494;-71
2022/09/23 10:13:29;;;;;;;0.77;0.77;;;16.50;99.90;;;;;;4955181;28;21011;-72
2022/09/23 10:15:56;;;;;;;0.53;0.53;;;16.60;99.90;;;;;;4949959;23;20561;-70
2022/09/23 10:18:29;;;;;;;0.67;0.67;;;16.60;99.90;;;;;;4910388;29;20481;-68
2022/09/23 10:21:01;;;;;;;1.00;0.50;;;16.60;99.90;;;;;;4933061;29;20855;-69
2022/09/23 10:23:32;;;;;;;0.73;0.73;;;16.60;99.90;;;;;;4924367;29;20969;-69
2022/09/23 10:26:00;;;;;;;0.80;0.80;;;16.60;99.90;;;;;;4920667;29;20927;-68
2022/09/23 10:28:42;;;;;;;0.50;0.50;;;16.70;99.90;;;;;;4904670;29;20480;-68
2022/09/23 10:31:11;;;;;;;0.90;0.90;;;16.70;99.90;;;;;;4909670;29;20459;-68
2022/09/23 10:33:42;;;;;;;1.20;0.60;;;16.70;99.90;;;;;;4905113;29;20751;-68
2022/09/23 10:36:10;;;;;;;0.50;0.50;;;16.80;99.90;;;;;;4911746;29;20495;-69
2022/09/23 10:38:38;;;;;;;0.60;0.60;;;16.80;99.90;;;;;;4906993;29;20533;-68
2022/09/23 10:47:08;;;;;;;0.60;0.60;;;17.10;99.90;;;;;;4907587;29;20534;-69
2022/09/23 10:49:57;;;;;;;0.50;0.50;;;17.10;99.90;;;;;;4901779;29;20481;-69
2022/09/23 10:52:43;;;;;;;0.70;0.70;;;17.20;99.90;;;;;;4916844;29;20472;-69
2022/09/23 10:55:22;;;;;;;0.70;0.70;;;17.30;99.90;;;;;;4909079;29;20492;-69
2022/09/23 10:58:05;;;;;;;0.73;0.73;;;17.40;99.90;;;;;;4898630;29;20463;-69
2022/09/23 11:00:40;;;;;;;0.60;0.60;;;17.60;99.90;;;;;;4915853;29;20561;-69
2022/09/23 11:03:36;;;;;;;0.90;0.90;;;17.70;99.90;;;;;;4910958;29;20477;-69
2022/09/23 11:06:14;;;;;;;0.60;0.60;;;17.60;99.90;;;;;;4909739;29;20489;-68
2022/09/23 11:08:58;;;;;;;0.97;0.97;;;17.70;99.90;;;;;;4900989;29;20494;-69
2022/09/23 11:11:38;;;;;;;0.47;0.47;;;17.80;99.90;;;;;;4916979;29;20468;-71
2022/09/23 11:14:28;;;;;;;0.97;0.97;;;17.80;99.90;;;;;;4903758;29;20575;-68
2022/09/23 11:17:16;;;;;;;1.00;1.00;;;17.90;99.90;;;;;;4892118;29;20516;-67
2022/09/23 11:20:08;;;;;;;0.83;0.83;;;18.00;99.90;;;;;;4900833;29;20481;-68
2022/09/23 11:22:48;;;;;;;0.70;0.70;;;18.20;99.90;;;;;;4908424;29;20497;-72
2022/09/23 11:25:25;;;;;;;0.90;0.90;;;18.30;99.90;;;;;;4913264;29;20493;-71
2022/09/23 11:28:17;;;;;;;0.70;0.70;;;18.50;99.90;;;;;;4901148;29;20500;-67
2022/09/23 11:30:53;;;;;;;0.50;0.50;;;18.60;99.90;;;;;;4902346;29;20483;-68
2022/09/23 11:33:39;;;;;;;0.90;0.90;;;18.70;99.90;;;;;;4904632;29;20478;-68
2022/09/23 11:36:10;;;;;;;0.30;0.30;;;18.80;99.90;;;;;;4904386;29;20550;-68
2022/09/23 11:38:40;;;;;;;0.57;0.57;;;18.80;99.90;;;;;;4907577;29;20484;-67
2022/09/23 11:41:17;;;;;;;2.20;0.67;;;18.70;99.90;;;;;;4916652;29;20492;-68
2022/09/23 11:43:50;;;;;;;0.70;0.70;;;18.70;99.90;;;;;;4901970;29;20538;-70
2022/09/23 11:46:25;;;;;;;0.77;0.77;;;18.70;99.90;;;;;;4915694;29;20560;-69
2022/09/23 11:48:57;;;;;;;0.90;0.90;;;18.80;99.90;;;;;;4909469;29;20484;-70
2022/09/23 11:51:28;;;;;;;1.00;1.00;;;18.90;99.90;;;;;;4916681;29;20461;-70
2022/09/23 11:54:00;;;;;;;0.70;0.70;;;18.90;99.90;;;;;;4903144;29;20562;-69
2022/09/23 11:56:33;;;;;;;0.67;0.67;;;18.90;99.90;;;;;;4916119;29;20481;-72
2022/09/23 11:59:10;;;;;;;0.73;0.73;;;19.00;99.90;;;;;;4904878;29;20617;-70
2022/09/23 12:01:41;;;;;;;1.03;1.03;;;19.00;99.90;;;;;;4915196;29;20496;-70
2022/09/23 12:04:15;;;;;;;0.83;0.83;;;19.00;99.90;;;;;;4912586;29;20500;-68
2022/09/23 12:06:44;;;;;;;0.90;0.73;;;19.00;99.90;;;;;;4885721;29;20825;-68
2022/09/23 12:09:19;;;;;;;0.80;0.80;;;19.00;99.90;;;;;;4913252;29;20466;-69
2022/09/23 12:11:53;;;;;;;0.77;0.77;;;19.10;99.90;;;;;;4893784;29;20480;-69
2022/09/23 12:14:29;;;;;;;1.00;1.00;;;19.10;99.90;;;;;;4916154;29;20956;-69
2022/09/23 12:17:17;;;;;;;0.80;0.80;;;19.10;99.90;;;;;;4914169;29;20616;-68
2022/09/23 12:20:12;;;;;;;0.97;0.97;;;19.10;99.90;;;;;;4905650;29;20491;-70
2022/09/23 12:22:53;;;;;;;0.90;0.90;;;19.00;99.90;;;;;;4907657;29;20995;-68
2022/09/23 12:25:37;;;;;;;0.60;0.60;;;19.10;99.90;;;;;;4915587;29;20513;-69
2022/09/23 12:28:06;;;;;;;1.70;0.83;;;19.10;99.90;;;;;;4910287;29;20474;-69
2022/09/23 12:30:36;;;;;;;1.00;1.00;;;19.20;99.90;;;;;;4916668;29;20972;-68
2022/09/23 12:33:10;;;;;;;1.90;0.67;;;19.20;99.90;;;;;;4903679;29;20471;-70
2022/09/23 12:35:41;;;;;;;0.73;0.73;;;19.30;99.90;;;;;;4899697;29;20489;-70
2022/09/23 12:38:20;;;;;;;0.73;0.70;;;19.30;99.90;;;;;;4904497;29;20477;-69
2022/09/23 12:40:48;;;;;;;0.80;0.80;;;19.30;99.90;;;;;;4899014;29;20475;-71
2022/09/23 12:43:21;;;;;;;0.83;0.83;;;19.30;99.90;;;;;;4903769;29;21033;-70
2022/09/23 12:45:49;;;;;;;1.13;1.13;;;19.20;99.90;;;;;;4910485;29;20527;-71
2022/09/23 12:48:43;;;;;;;0.70;0.70;;;19.20;99.90;;;;;;4898974;29;20813;-68
2022/09/23 12:51:20;;;;;;;1.00;1.00;;;19.20;99.90;;;;;;4908125;29;20993;-71
2022/09/23 12:54:21;;;;;;;0.57;0.57;;;19.10;99.90;;;;;;4905162;29;20483;-69
2022/09/23 12:56:59;;;;;;;0.63;0.63;;;19.20;99.90;;;;;;4885055;29;20960;-69
2022/09/23 12:59:28;;;;;;;0.80;0.80;;;19.20;99.90;;;;;;4910495;29;20489;-70
2022/09/23 13:01:57;;;;;;;0.60;0.60;;;19.20;99.90;;;;;;4906997;29;20489;-69
2022/09/23 13:07:31;;;;;;;0.80;0.80;;;19.20;99.90;;;;;;4899195;29;20474;-69
2022/09/23 13:10:07;;;;;;;0.73;0.73;;;19.30;99.90;;;;;;4902501;29;20883;-69
2022/09/23 13:12:38;;;;;;;1.00;1.00;;;19.30;99.90;;;;;;4900202;29;20593;-71
2022/09/23 13:15:14;;;;;;;0.70;0.70;;;19.30;99.90;;;;;;4915049;29;20489;-70
2022/09/23 13:17:43;;;;;;;0.80;0.80;;;19.30;99.90;;;;;;4895021;29;20477;-70
2022/09/23 13:20:37;;;;;;;0.80;0.80;;;19.20;99.90;;;;;;4909527;29;20494;-70
2022/09/23 13:23:21;;;;;;;0.80;0.80;;;19.20;99.90;;;;;;4910204;29;20503;-69
2022/09/23 13:25:50;;;;;;;0.80;0.80;;;19.20;99.90;;;;;;4885260;29;20826;-69
2022/09/23 13:28:26;;;;;;;0.90;0.90;;;19.20;99.90;;;;;;4896674;29;20553;-70
2022/09/23 13:30:53;;;;;;;0.87;0.87;;;19.30;99.90;;;;;;4908260;29;20467;-69
2022/09/23 13:33:29;;;;;;;0.57;0.57;;;19.20;99.90;;;;;;4899572;29;20597;-69
2022/09/23 13:36:01;;;;;;;0.93;0.93;;;19.20;99.90;;;;;;4898996;29;20507;-68
2022/09/23 13:38:30;;;;;;;0.80;0.77;;;19.10;99.90;;;;;;4895485;29;20658;-69
2022/09/23 13:41:01;;;;;;;0.70;0.70;;;19.10;99.90;;;;;;4905702;29;20561;-69
2022/09/23 13:43:31;;;;;;;0.70;0.70;;;19.10;99.90;;;;;;4908848;29;20519;-69
2022/09/23 13:46:00;;;;;;;0.57;0.57;;;19.10;99.90;;;;;;4912151;29;20479;-70
2022/09/23 13:48:28;;;;;;;0.50;0.50;;;19.00;99.90;;;;;;4900746;29;20979;-69
2022/09/23 13:50:55;;;;;;;0.70;0.70;;;19.00;99.90;;;;;;4913340;29;20461;-72
2022/09/23 13:53:25;;;;;;;1.00;1.00;;;18.90;99.90;;;;;;4906839;29;20518;-68
2022/09/23 13:56:04;;;;;;;0.50;0.50;;;18.90;99.90;;;;;;4906265;29;20503;-68
2022/09/23 13:58:32;;;;;;;0.60;0.57;;;18.90;99.90;;;;;;4904867;29;20470;-69
2022/09/23 14:00:59;;;;;;;0.60;0.60;;;18.90;99.90;;;;;;4904641;29;20483;-69
2022/09/23 14:03:30;;;;;;;1.07;0.77;;;18.90;99.90;;;;;;4903153;29;20506;-68
2022/09/23 14:05:59;;;;;;;0.77;0.77;;;18.90;99.90;;;;;;4905609;29;20565;-70
2022/09/23 14:08:26;;;;;;;0.40;0.40;;;19.00;99.90;;;;;;4912401;29;20467;-70
2022/09/23 14:10:54;;;;;;;1.43;0.73;;;19.00;99.90;;;;;;4899745;29;20470;-69
2022/09/23 14:13:23;;;;;;;0.70;0.70;;;18.90;99.90;;;;;;4907011;29;20472;-68
2022/09/23 14:15:52;;;;;;;10.40;1.03;;;18.90;99.90;;;;;;4909257;29;20506;-69
2022/09/23 14:18:30;;;;;;;0.63;0.63;;;18.90;99.90;;;;;;4902664;29;20477;-69
2022/09/23 14:20:56;;;;;;;2.20;0.83;;;18.80;99.90;;;;;;4909213;29;20469;-70
2022/09/23 14:23:23;;;;;;;1.00;1.00;;;18.90;99.90;;;;;;4908733;29;20975;-70
2022/09/23 14:25:52;;;;;;;0.70;0.70;;;18.90;99.90;;;;;;4902317;29;20505;-71
2022/09/23 14:28:21;;;;;;;1.13;1.10;;;18.90;99.90;;;;;;4908288;29;20481;-70
2022/09/23 14:30:50;;;;;;;0.80;0.80;;;18.90;99.90;;;;;;4900824;29;20533;-71
2022/09/23 14:33:21;;;;;;;2.00;0.90;;;18.90;99.90;;;;;;4909587;29;20485;-71
2022/09/23 14:35:52;;;;;;;0.50;0.50;;;18.80;99.90;;;;;;4906397;29;20587;-71
2022/09/23 14:41:20;;;;;;;0.80;0.80;;;18.70;99.90;;;;;;4903223;29;20474;-70
2022/09/23 14:43:49;;;;;;;0.87;0.87;;;18.60;99.90;;;;;;4899114;29;20542;-70
2022/09/23 14:46:18;;;;;;;0.87;0.87;;;18.50;99.90;;;;;;4897206;29;20979;-70
2022/09/23 14:49:01;;;;;;;0.77;0.77;;;18.50;99.90;;;;;;4904728;29;20470;-70
2022/09/23 14:51:41;;;;;;;0.87;0.87;;;18.40;99.90;;;;;;4910538;29;20469;-69
2022/09/23 14:54:30;;;;;;;0.63;0.63;;;18.40;99.90;;;;;;4903246;29;20476;-70
2022/09/23 14:56:56;;;;;;;1.13;1.13;;;18.30;99.90;;;;;;4902443;29;20489;-71
2022/09/23 14:59:27;;;;;;;1.10;1.10;;;18.30;99.90;;;;;;4897897;29;20474;-70
2022/09/23 15:01:54;;;;;;;1.83;1.73;;;18.20;99.90;;;;;;4899751;29;20544;-70
2022/09/23 15:04:30;;;;;;;1.03;1.00;;;18.10;99.90;;;;;;4908310;29;20882;-69
2022/09/23 15:07:01;;;;;;;0.63;0.63;;;18.20;99.90;;;;;;4898400;29;20698;-70
2022/09/23 15:09:32;;;;;;;0.98;0.98;;;18.10;99.90;;;;;;4909347;29;20475;-68
2022/09/23 15:12:01;;;;;;;0.90;0.90;;;18.10;99.90;;;;;;4904520;29;20209;-68
2022/09/23 15:14:31;;;;;;;0.80;0.80;;;18.10;99.90;;;;;;4906821;29;20478;-69
2022/09/23 15:16:59;;;;;;;0.60;0.60;;;18.10;99.90;;;;;;4895375;29;20505;-69
2022/09/23 15:19:27;;;;;;;1.07;1.07;;;18.10;99.90;;;;;;4906564;29;20490;-69
2022/09/23 15:21:54;;;;;;;0.70;0.70;;;18.10;99.90;;;;;;4910866;29;20588;-70
2022/09/23 15:24:38;;;;;;;1.10;1.10;;;18.10;99.90;;;;;;4911376;29;20478;-71
2022/09/23 15:27:16;;;;;;;3.57;1.13;;;18.00;99.90;;;;;;4910222;29;20495;-70
2022/09/23 15:29:43;;;;;;;0.87;0.87;;;18.00;99.90;;;;;;4904304;29;20481;-70
2022/09/23 15:32:10;;;;;;;1.23;1.10;;;17.90;99.90;;;;;;4913772;29;20950;-70
2022/09/23 15:34:36;;;;;;;0.73;0.73;;;17.90;99.90;;;;;;4903513;29;20892;-70
2022/09/23 15:37:04;;;;;;;1.10;1.10;;;17.90;99.90;;;;;;4905047;29;20532;-69
2022/09/23 15:39:30;;;;;;;1.27;1.27;;;17.80;99.90;;;;;;4903451;29;20482;-68
2022/09/23 15:42:00;;;;;;;0.93;0.93;;;17.70;99.90;;;;;;4898374;29;21117;-69
2022/09/23 15:44:28;;;;;;;1.07;1.07;;;17.70;99.90;;;;;;4912759;29;20888;-70
2022/09/23 15:46:58;;;;;;;1.17;1.17;;;17.60;99.90;;;;;;4908026;29;20883;-69
2022/09/23 15:49:28;;;;;;;1.00;1.00;;;17.60;99.90;;;;;;4912240;29;20492;-69
2022/09/23 15:51:59;;;;;;;1.27;1.27;;;17.50;99.90;;;;;;4897378;29;20473;-69
2022/09/23 15:54:26;;;;;;;1.37;1.10;;;17.50;99.90;;;;;;4895287;29;21014;-69
2022/09/23 15:56:53;;;;;;;1.10;1.10;;;17.50;99.90;;;;;;4903620;29;20846;-68
2022/09/23 15:59:21;;;;;;;1.17;1.17;;;17.40;99.90;;;;;;4913552;29;20464;-68
2022/09/23 16:01:48;;;;;;;1.00;1.00;;;17.30;99.90;;;;;;4910916;29;20478;-68
2022/09/23 16:04:15;;;;;;;1.13;1.13;;;17.30;99.90;;;;;;4901464;29;20500;-69
2022/09/23 16:06:43;;;;;;;1.23;1.20;;;17.30;99.90;;;;;;4891144;29;20498;-68
2022/09/23 16:09:12;;;;;;;1.80;1.13;;;17.20;99.90;;;;;;4894007;29;20469;-68
2022/09/23 16:11:41;;;;;;;1.43;1.33;;;17.20;99.90;;;;;;4892696;29;20475;-68
2022/09/23 16:14:11;;;;;;;1.33;1.23;;;17.20;99.90;;;;;;4908268;29;20472;-69
2022/09/23 16:16:40;;;;;;;2.37;1.80;;;17.10;99.90;;;;;;4903624;29;20503;-69
2022/09/23 16:19:07;;;;;;;1.33;1.20;;;17.00;99.90;;;;;;4908906;29;20949;-69
2022/09/23 16:21:34;;;;;;;1.00;1.00;;;17.00;99.90;;;;;;4915557;29;20488;-70
2022/09/23 16:24:01;;;;;;;1.50;1.50;;;17.00;99.90;;;;;;4907167;29;20492;-69
2022/09/23 16:26:31;;;;;;;1.70;1.70;;;16.90;99.90;;;;;;4904169;29;20523;-70
2022/09/23 16:28:59;;;;;;;1.63;1.40;;;16.90;99.90;;;;;;4903715;29;20491;-71
2022/09/23 16:31:28;;;;;;;1.13;1.13;;;16.70;99.90;;;;;;4904649;29;20846;-70
2022/09/23 16:33:56;;;;;;;1.00;1.00;;;16.80;99.90;;;;;;4907236;29;20502;-68
2022/09/23 16:36:26;;;;;;;1.70;1.60;;;16.70;99.90;;;;;;4899728;29;20500;-68
2022/09/23 16:38:54;;;;;;;1.10;1.07;;;16.70;99.90;;;;;;4905421;29;20523;-69
2022/09/23 16:41:22;;;;;;;6.70;1.60;;;16.60;99.90;;;;;;4899092;29;20473;-70
2022/09/23 16:43:48;;;;;;;1.53;1.53;;;16.60;99.90;;;;;;4899706;29;20524;-69
2022/09/23 16:46:16;;;;;;;6.63;1.67;;;16.50;99.90;;;;;;4903292;29;20498;-69
2022/09/23 16:48:44;;;;;;;1.87;1.70;;;16.50;99.90;;;;;;4899928;29;20968;-69
2022/09/23 16:51:17;;;;;;;1.33;1.33;;;16.40;99.90;;;;;;4903404;29;20482;-69
2022/09/23 16:53:44;;;;;;;1.27;1.17;;;16.40;99.90;;;;;;4896651;29;20497;-68
2022/09/23 16:56:12;;;;;;;1.93;1.83;;;16.40;99.90;;;;;;4900927;29;20498;-69
2022/09/23 16:58:39;;;;;;;2.10;2.00;;;16.30;99.90;;;;;;4896238;29;20477;-70
2022/09/23 17:03:52;;;;;;;1.70;1.60;;;16.20;99.90;;;;;;4899545;29;20503;-70
2022/09/23 17:06:23;;;;;;;2.30;2.10;;;16.20;99.90;;;;;;4889432;29;20505;-70
2022/09/23 17:08:50;;;;;;;2.83;1.93;;;16.10;99.90;;;;;;4899453;29;20476;-69
2022/09/23 17:11:18;;;;;;;1.90;1.80;;;16.10;99.90;;;;;;4899605;29;20483;-70
2022/09/23 17:13:45;;;;;;;2.70;2.50;;;16.00;99.90;;;;;;4897230;29;20466;-70
2022/09/23 17:16:22;;;;;;;1.43;1.43;;;16.00;99.90;;;;;;4900537;29;20505;-70
2022/09/23 17:18:49;;;;;;;1.43;1.40;;;16.00;99.90;;;;;;4895909;29;20959;-70
2022/09/23 17:21:16;;;;;;;1.50;1.50;;;15.90;99.90;;;;;;4896350;29;20476;-70